createdAt,value
2023-03-19T00:00:09.216Z,56.90
2023-03-19T00:01:11.449Z,56.50
2023-03-19T00:02:17.861Z,58.50
2023-03-19T00:03:24.688Z,60.10
2023-03-19T00:04:29.257Z,56.10
2023-03-19T00:05:31.658Z,56.80
2023-03-19T00:06:36.502Z,51.60
2023-03-19T00:07:46.040Z,56.80
2023-03-19T00:08:48.118Z,53.90
2023-03-19T00:09:54.392Z,49.20
2023-03-19T00:11:00.491Z,51.90
2023-03-19T00:12:04.876Z,53.60
2023-03-19T00:13:15.548Z,51.50
2023-03-19T00:14:20.914Z,52.90
2023-03-19T00:15:26.112Z,55.60
2023-03-19T00:16:28.354Z,59.20
2023-03-19T00:17:30.408Z,57.50
2023-03-19T00:18:38.891Z,58.00
2023-03-19T00:19:44.274Z,59.90
2023-03-19T00:20:51.414Z,58.40
2023-03-19T00:21:54.975Z,57.44
2023-03-19T00:22:58.831Z,61.30
2023-03-19T00:24:01.504Z,62.60
2023-03-19T00:25:10.818Z,60.80
2023-03-19T00:26:13.656Z,59.80
2023-03-19T00:27:18.889Z,59.70
2023-03-19T00:28:22.896Z,47.60
2023-03-19T00:29:27.998Z,60.80
2023-03-19T00:30:35.957Z,61.00
2023-03-19T00:31:39.521Z,59.60
2023-03-19T00:32:43.534Z,59.60
2023-03-19T00:33:47.813Z,57.80
2023-03-19T00:34:50.025Z,59.90
2023-03-19T00:35:53.582Z,56.60
2023-03-19T00:36:56.281Z,58.60
2023-03-19T00:37:58.988Z,54.40
2023-03-19T00:39:01.572Z,56.50
2023-03-19T00:40:08.560Z,57.00
2023-03-19T00:41:12.160Z,61.50
2023-03-19T00:42:18.177Z,56.00
2023-03-19T00:43:22.330Z,58.10
2023-03-19T00:44:25.097Z,59.50
2023-03-19T00:45:32.971Z,58.10
2023-03-19T00:46:39.642Z,58.00
2023-03-19T00:47:44.249Z,61.50
2023-03-19T00:48:53.383Z,55.90
2023-03-19T00:49:57.569Z,62.36
2023-03-19T00:51:10.971Z,63.40
2023-03-19T00:52:14.392Z,62.00
2023-03-19T00:53:21.390Z,60.50
2023-03-19T00:54:25.392Z,65.10
2023-03-19T00:55:28.155Z,66.70
2023-03-19T00:56:30.344Z,64.20
2023-03-19T00:57:32.951Z,64.90
2023-03-19T00:58:35.245Z,64.80
2023-03-19T00:59:37.550Z,67.80
2023-03-19T01:00:43.173Z,68.60
2023-03-19T01:01:51.919Z,67.44
2023-03-19T01:02:54.261Z,64.20
2023-03-19T01:03:58.339Z,70.10
2023-03-19T01:05:01.386Z,67.80
2023-03-19T01:06:03.858Z,68.55
2023-03-19T01:07:29.102Z,70.30
2023-03-19T01:08:32.021Z,68.10
2023-03-19T01:09:34.270Z,69.80
2023-03-19T01:10:36.469Z,69.22
2023-03-19T01:11:43.776Z,70.70
2023-03-19T01:12:46.577Z,70.20
2023-03-19T01:13:56.840Z,72.00
2023-03-19T01:14:59.799Z,70.60
2023-03-19T01:16:02.652Z,68.18
2023-03-19T01:17:04.833Z,67.00
2023-03-19T01:18:11.142Z,62.40
2023-03-19T01:19:15.227Z,65.40
2023-03-19T01:20:17.854Z,71.90
2023-03-19T01:21:20.817Z,71.60
2023-03-19T01:22:24.885Z,68.50
2023-03-19T01:23:30.580Z,69.20
2023-03-19T01:24:33.237Z,70.80
2023-03-19T01:25:39.065Z,71.50
2023-03-19T01:26:44.213Z,69.30
2023-03-19T01:27:49.372Z,70.70
2023-03-19T01:28:52.172Z,70.40
2023-03-19T01:30:00.200Z,69.00
2023-03-19T01:31:13.226Z,64.20
2023-03-19T01:32:24.328Z,34.90
2023-03-19T01:33:33.998Z,67.80
2023-03-19T01:34:39.783Z,69.55
2023-03-19T01:35:46.969Z,70.70
2023-03-19T01:36:49.902Z,69.40
2023-03-19T01:37:54.013Z,69.90
2023-03-19T01:38:58.527Z,70.10
2023-03-19T01:40:00.836Z,68.70
2023-03-19T01:41:03.591Z,73.00
2023-03-19T01:42:06.752Z,73.50
2023-03-19T01:43:25.901Z,70.60
2023-03-19T01:44:36.205Z,70.10
2023-03-19T01:46:17.304Z,69.50
2023-03-19T01:47:35.622Z,66.60
2023-03-19T01:48:49.786Z,64.40
2023-03-19T01:49:55.625Z,67.90
2023-03-19T01:50:59.260Z,65.30
2023-03-19T01:52:04.719Z,70.50
2023-03-19T01:53:12.609Z,65.80
2023-03-19T01:54:22.415Z,63.80
2023-03-19T01:55:29.522Z,66.30
2023-03-19T01:56:36.669Z,65.20
2023-03-19T01:58:58.611Z,66.70
2023-03-19T02:00:05.946Z,65.40
2023-03-19T02:01:27.846Z,65.30
2023-03-19T02:02:32.926Z,64.10
2023-03-19T02:03:38.429Z,66.20
2023-03-19T02:04:51.436Z,63.70
2023-03-19T02:05:55.374Z,63.20
2023-03-19T02:06:59.321Z,65.50
2023-03-19T02:08:04.761Z,64.20
2023-03-19T02:09:07.041Z,61.60
2023-03-19T02:10:13.400Z,64.60
2023-03-19T02:11:17.172Z,64.60
2023-03-19T02:12:19.516Z,66.30
2023-03-19T02:13:22.748Z,57.20
2023-03-19T02:14:25.183Z,63.90
2023-03-19T02:15:27.398Z,60.80
2023-03-19T02:16:29.751Z,57.30
2023-03-19T02:17:33.071Z,65.20
2023-03-19T02:18:35.647Z,64.80
2023-03-19T02:21:05.263Z,65.60
2023-03-19T02:22:10.042Z,66.90
2023-03-19T02:23:22.209Z,66.30
2023-03-19T02:24:32.446Z,64.30
2023-03-19T02:25:46.506Z,64.00
2023-03-19T02:26:50.348Z,66.70
2023-03-19T02:27:53.499Z,67.80
2023-03-19T02:28:57.031Z,62.40
2023-03-19T02:30:22.623Z,55.50
2023-03-19T02:31:24.856Z,63.90
2023-03-19T02:32:27.229Z,63.80
2023-03-19T02:33:29.812Z,67.10
2023-03-19T02:35:52.051Z,31.40
2023-03-19T02:37:18.614Z,69.00
2023-03-19T02:38:22.046Z,64.10
2023-03-19T02:39:28.311Z,63.64
2023-03-19T02:40:39.739Z,52.80
2023-03-19T02:41:42.707Z,64.40
2023-03-19T02:42:45.020Z,64.00
2023-03-19T02:43:47.095Z,59.60
2023-03-19T02:44:49.557Z,63.67
2023-03-19T02:45:51.904Z,62.60
2023-03-19T02:46:54.322Z,60.80
2023-03-19T02:47:56.999Z,63.20
2023-03-19T02:48:59.283Z,63.90
2023-03-19T02:50:02.016Z,63.30
2023-03-19T02:51:04.812Z,57.50
2023-03-19T02:52:07.457Z,60.10
2023-03-19T02:53:09.655Z,57.10
2023-03-19T02:54:11.834Z,63.60
2023-03-19T02:55:14.040Z,55.40
2023-03-19T02:56:16.314Z,60.30
2023-03-19T02:57:18.609Z,58.40
2023-03-19T02:58:21.278Z,62.22
2023-03-19T02:59:23.449Z,56.70
2023-03-19T03:00:26.672Z,62.67
2023-03-19T03:01:28.992Z,61.60
2023-03-19T03:02:31.333Z,49.50
2023-03-19T03:03:33.425Z,59.00
2023-03-19T03:04:35.957Z,59.33
2023-03-19T03:05:38.541Z,58.70
2023-03-19T03:06:40.831Z,56.70
2023-03-19T03:07:42.915Z,60.40
2023-03-19T03:08:46.325Z,58.82
2023-03-19T03:09:48.433Z,60.80
2023-03-19T03:10:50.948Z,60.40
2023-03-19T03:11:53.945Z,58.10
2023-03-19T03:12:56.495Z,58.64
2023-03-19T03:13:59.644Z,61.80
2023-03-19T03:15:02.792Z,59.40
2023-03-19T03:16:06.020Z,60.27
2023-03-19T03:17:08.850Z,62.90
2023-03-19T03:18:11.065Z,57.30
2023-03-19T03:19:13.798Z,43.60
2023-03-19T03:20:18.115Z,61.30
2023-03-19T03:21:20.731Z,58.90
2023-03-19T03:22:22.934Z,52.10
2023-03-19T03:23:24.975Z,62.10
2023-03-19T03:24:27.605Z,58.67
2023-03-19T03:25:30.178Z,58.60
2023-03-19T03:26:32.608Z,58.90
2023-03-19T03:27:34.989Z,57.40
2023-03-19T03:28:37.172Z,55.80
2023-03-19T03:29:40.649Z,52.90
2023-03-19T03:30:43.923Z,59.00
2023-03-19T03:31:46.883Z,57.10
2023-03-19T03:32:49.490Z,54.40
2023-03-19T03:33:51.668Z,56.40
2023-03-19T03:34:54.196Z,55.20
2023-03-19T03:35:56.388Z,54.30
2023-03-19T03:36:59.057Z,52.60
2023-03-19T03:38:01.262Z,52.40
2023-03-19T03:39:03.668Z,51.40
2023-03-19T03:40:08.255Z,45.18
2023-03-19T03:41:11.012Z,49.90
2023-03-19T03:42:14.174Z,49.80
2023-03-19T03:43:16.465Z,50.40
2023-03-19T03:44:19.072Z,50.00
2023-03-19T03:45:22.574Z,45.90
2023-03-19T03:46:26.579Z,48.40
2023-03-19T03:47:28.776Z,40.10
2023-03-19T03:48:30.853Z,44.60
2023-03-19T03:49:32.902Z,46.60
2023-03-19T03:50:35.593Z,43.50
2023-03-19T03:51:39.995Z,44.60
2023-03-19T03:52:42.607Z,44.70
2023-03-19T03:53:44.883Z,46.00
2023-03-19T03:54:47.361Z,47.10
2023-03-19T03:55:49.832Z,44.20
2023-03-19T03:56:54.224Z,40.40
2023-03-19T03:57:56.612Z,37.90
2023-03-19T03:58:58.913Z,38.60
2023-03-19T04:00:01.329Z,39.20
2023-03-19T04:01:03.721Z,38.60
2023-03-19T04:02:07.002Z,36.80
2023-03-19T04:03:09.282Z,37.00
2023-03-19T04:04:11.918Z,38.70
2023-03-19T04:05:14.243Z,34.70
2023-03-19T04:06:21.770Z,27.00
2023-03-19T04:07:26.279Z,31.00
2023-03-19T04:08:30.298Z,33.60
2023-03-19T04:09:33.594Z,37.60
2023-03-19T04:10:40.689Z,32.30
2023-03-19T04:11:42.987Z,35.20
2023-03-19T04:12:45.716Z,35.09
2023-03-19T04:13:48.399Z,32.70
2023-03-19T04:14:51.219Z,32.40
2023-03-19T04:15:53.685Z,37.00
2023-03-19T04:16:57.170Z,32.40
2023-03-19T04:17:59.624Z,41.10
2023-03-19T04:19:01.850Z,35.90
2023-03-19T04:20:06.530Z,38.10
2023-03-19T04:21:09.088Z,34.00
2023-03-19T04:22:11.787Z,39.45
2023-03-19T04:23:14.501Z,28.20
2023-03-19T04:24:16.956Z,34.30
2023-03-19T04:25:19.942Z,39.60
2023-03-19T04:26:22.216Z,37.90
2023-03-19T04:27:24.903Z,39.70
2023-03-19T04:28:28.270Z,37.18
2023-03-19T04:29:30.530Z,27.60
2023-03-19T04:30:35.436Z,35.00
2023-03-19T04:31:38.862Z,31.10
2023-03-19T04:32:41.189Z,28.82
2023-03-19T04:33:44.093Z,33.18
2023-03-19T04:34:46.870Z,31.45
2023-03-19T04:35:49.271Z,34.80
2023-03-19T04:36:51.333Z,30.80
2023-03-19T04:37:53.514Z,33.10
2023-03-19T04:38:56.964Z,35.70
2023-03-19T04:39:59.592Z,33.80
2023-03-19T04:41:01.974Z,32.00
2023-03-19T04:42:04.525Z,35.10
2023-03-19T04:43:08.640Z,38.40
2023-03-19T04:44:11.118Z,36.20
2023-03-19T04:45:14.959Z,37.80
2023-03-19T04:46:17.953Z,37.10
2023-03-19T04:47:20.196Z,38.80
2023-03-19T04:48:27.007Z,38.10
2023-03-19T04:49:29.511Z,43.40
2023-03-19T04:50:32.253Z,44.10
2023-03-19T04:51:35.326Z,35.40
2023-03-19T04:52:37.652Z,41.80
2023-03-19T04:53:40.396Z,35.50
2023-03-19T04:54:42.513Z,41.00
2023-03-19T04:55:44.661Z,43.90
2023-03-19T04:56:51.898Z,38.90
2023-03-19T04:57:55.634Z,43.20
2023-03-19T04:58:59.670Z,43.10
2023-03-19T05:00:04.217Z,45.70
2023-03-19T05:01:08.620Z,29.70
2023-03-19T05:02:12.709Z,43.10
2023-03-19T05:03:15.606Z,47.00
2023-03-19T05:04:19.309Z,47.70
2023-03-19T05:05:22.708Z,47.55
2023-03-19T05:06:26.384Z,47.80
2023-03-19T05:07:28.631Z,48.20
2023-03-19T05:08:32.235Z,51.10
2023-03-19T05:09:34.939Z,49.10
2023-03-19T05:10:37.891Z,47.90
2023-03-19T05:11:41.186Z,50.10
2023-03-19T05:12:48.238Z,49.30
2023-03-19T05:13:51.222Z,51.90
2023-03-19T05:14:55.602Z,49.60
2023-03-19T05:15:59.826Z,50.30
2023-03-19T05:17:02.111Z,48.00
2023-03-19T05:18:06.232Z,48.80
2023-03-19T05:19:10.284Z,52.50
2023-03-19T05:20:12.949Z,50.40
2023-03-19T05:21:17.491Z,50.30
2023-03-19T05:22:21.040Z,49.00
2023-03-19T05:23:23.216Z,48.50
2023-03-19T05:24:27.350Z,50.60
2023-03-19T05:25:30.399Z,42.90
2023-03-19T05:26:32.570Z,51.60
2023-03-19T05:27:43.413Z,51.70
2023-03-19T05:28:47.505Z,48.40
2023-03-19T05:29:50.852Z,51.50
2023-03-19T05:31:00.703Z,51.40
2023-03-19T05:32:05.758Z,48.40
2023-03-19T05:33:08.989Z,49.20
2023-03-19T05:34:13.096Z,50.90
2023-03-19T05:35:15.727Z,46.90
2023-03-19T05:36:17.914Z,45.70
2023-03-19T05:37:22.106Z,47.30
2023-03-19T05:38:26.147Z,47.50
2023-03-19T05:39:33.238Z,49.70
2023-03-19T05:40:37.859Z,47.20
2023-03-19T05:41:41.996Z,48.00
2023-03-19T05:42:46.001Z,55.00
2023-03-19T05:43:49.062Z,55.00
2023-03-19T05:44:53.096Z,56.90
2023-03-19T05:46:06.325Z,57.90
2023-03-19T05:47:11.811Z,49.90
2023-03-19T05:48:15.161Z,51.70
2023-03-19T05:49:18.893Z,53.60
2023-03-19T05:50:21.267Z,57.40
2023-03-19T05:51:31.320Z,56.80
2023-03-19T05:52:34.029Z,53.73
2023-03-19T05:53:36.210Z,58.60
2023-03-19T05:54:43.806Z,59.50
2023-03-19T05:55:50.451Z,59.20
2023-03-19T05:56:54.076Z,56.10
2023-03-19T05:58:06.974Z,56.30
2023-03-19T05:59:09.656Z,59.00
2023-03-19T06:00:17.243Z,58.40
2023-03-19T06:01:21.969Z,56.70
2023-03-19T06:02:24.736Z,56.10
2023-03-19T06:03:28.373Z,58.90
2023-03-19T06:04:32.502Z,55.90
2023-03-19T06:05:35.138Z,54.70
2023-03-19T06:06:39.289Z,59.10
2023-03-19T06:07:41.736Z,57.40
2023-03-19T06:08:46.129Z,62.40
2023-03-19T06:10:10.438Z,60.00
2023-03-19T06:11:12.874Z,61.90
2023-03-19T06:12:15.729Z,62.30
2023-03-19T06:13:28.643Z,63.50
2023-03-19T06:14:41.883Z,60.70
2023-03-19T06:15:48.092Z,55.90
2023-03-19T06:16:55.611Z,65.10
2023-03-19T06:17:58.061Z,60.60
2023-03-19T06:19:00.275Z,58.70
2023-03-19T06:20:03.243Z,58.50
2023-03-19T06:21:05.693Z,58.55
2023-03-19T06:22:08.319Z,58.10
2023-03-19T06:23:10.804Z,58.60
2023-03-19T06:24:12.858Z,57.10
2023-03-19T06:25:15.666Z,57.00
2023-03-19T06:26:17.918Z,61.55
2023-03-19T06:27:27.789Z,62.00
2023-03-19T06:28:32.580Z,52.10
2023-03-19T06:29:35.328Z,61.09
2023-03-19T06:30:39.474Z,61.10
2023-03-19T06:31:43.677Z,52.40
2023-03-19T06:32:47.773Z,57.80
2023-03-19T06:33:50.043Z,49.20
2023-03-19T06:34:52.925Z,64.00
2023-03-19T06:35:56.724Z,65.00
2023-03-19T06:36:58.888Z,66.00
2023-03-19T06:38:00.926Z,66.56
2023-03-19T06:39:05.121Z,62.20
2023-03-19T06:40:11.172Z,63.00
2023-03-19T06:41:13.341Z,66.10
2023-03-19T06:42:16.083Z,65.00
2023-03-19T06:43:18.969Z,62.90
2023-03-19T06:44:21.289Z,62.70
2023-03-19T06:45:23.443Z,50.10
2023-03-19T06:46:25.641Z,59.60
2023-03-19T06:47:28.019Z,61.30
2023-03-19T06:48:30.185Z,58.30
2023-03-19T06:49:32.366Z,59.44
2023-03-19T06:50:34.786Z,58.70
2023-03-19T06:51:38.199Z,59.20
2023-03-19T06:52:40.441Z,55.50
2023-03-19T06:53:42.882Z,55.50
2023-03-19T06:54:45.064Z,54.80
2023-03-19T06:55:47.749Z,57.40
2023-03-19T06:56:49.840Z,53.50
2023-03-19T06:57:51.904Z,52.20
2023-03-19T06:58:54.060Z,52.67
2023-03-19T06:59:56.226Z,51.80
2023-03-19T07:00:58.945Z,51.70
2023-03-19T07:02:01.292Z,25.10
2023-03-19T07:03:03.841Z,45.90
2023-03-19T07:04:05.923Z,48.70
2023-03-19T07:05:08.448Z,46.60
2023-03-19T07:06:11.533Z,49.70
2023-03-19T07:07:13.699Z,50.40
2023-03-19T07:08:15.992Z,45.10
2023-03-19T07:09:18.151Z,38.20
2023-03-19T07:10:21.037Z,45.90
2023-03-19T07:11:24.177Z,42.40
2023-03-19T07:12:27.424Z,42.90
2023-03-19T07:13:29.657Z,38.00
2023-03-19T07:14:31.869Z,43.60
2023-03-19T07:15:34.537Z,42.90
2023-03-19T07:16:36.980Z,43.70
2023-03-19T07:17:39.582Z,36.00
2023-03-19T07:18:41.733Z,38.20
2023-03-19T07:19:43.986Z,37.20
2023-03-19T07:20:46.278Z,34.50
2023-03-19T07:21:48.440Z,37.40
2023-03-19T07:22:51.700Z,39.60
2023-03-19T07:23:53.854Z,36.00
2023-03-19T07:24:56.126Z,39.30
2023-03-19T07:25:58.299Z,44.10
2023-03-19T07:27:00.839Z,35.00
2023-03-19T07:28:03.805Z,32.80
2023-03-19T07:29:06.049Z,37.30
2023-03-19T07:30:10.068Z,33.00
2023-03-19T07:31:12.183Z,35.50
2023-03-19T07:32:14.863Z,33.70
2023-03-19T07:33:17.495Z,34.50
2023-03-19T07:34:20.132Z,34.50
2023-03-19T07:35:22.870Z,35.20
2023-03-19T07:36:25.333Z,32.27
2023-03-19T07:37:27.441Z,37.90
2023-03-19T07:38:30.486Z,35.22
2023-03-19T07:39:32.808Z,36.00
2023-03-19T07:40:35.396Z,30.90
2023-03-19T07:41:37.973Z,27.90
2023-03-19T07:42:41.889Z,29.50
2023-03-19T07:43:45.020Z,33.10
2023-03-19T07:44:47.594Z,28.60
2023-03-19T07:45:49.806Z,29.50
2023-03-19T07:46:52.124Z,26.80
2023-03-19T07:47:54.304Z,30.20
2023-03-19T07:48:56.833Z,30.50
2023-03-19T07:50:00.028Z,27.50
2023-03-19T07:51:02.657Z,27.20
2023-03-19T07:52:04.915Z,27.80
2023-03-19T07:53:07.641Z,29.60
2023-03-19T07:54:09.634Z,25.60
2023-03-19T07:55:11.640Z,28.33
2023-03-19T07:56:14.540Z,26.40
2023-03-19T07:57:17.155Z,29.00
2023-03-19T07:58:19.130Z,25.70
2023-03-19T07:59:21.438Z,22.10
2023-03-19T08:00:23.966Z,25.50
2023-03-19T08:01:26.658Z,24.20
2023-03-19T08:02:28.797Z,22.30
2023-03-19T08:03:30.889Z,22.20
2023-03-19T08:04:33.112Z,19.40
2023-03-19T08:05:35.495Z,20.10
2023-03-19T08:06:37.873Z,20.10
2023-03-19T08:07:40.384Z,19.60
2023-03-19T08:08:42.541Z,21.70
2023-03-19T08:09:45.400Z,18.40
2023-03-19T08:10:47.546Z,18.60
2023-03-19T08:11:49.736Z,20.70
2023-03-19T08:12:51.800Z,20.40
2023-03-19T08:13:54.287Z,18.70
2023-03-19T08:14:56.365Z,16.80
2023-03-19T08:15:58.599Z,18.00
2023-03-19T08:17:00.884Z,18.50
2023-03-19T08:18:04.524Z,16.70
2023-03-19T08:19:07.087Z,17.60
2023-03-19T08:20:11.975Z,17.70
2023-03-19T08:21:13.998Z,21.60
2023-03-19T08:22:16.768Z,23.70
2023-03-19T08:23:19.444Z,21.70
2023-03-19T08:24:21.676Z,16.50
2023-03-19T08:25:24.586Z,21.00
2023-03-19T08:26:27.848Z,18.80
2023-03-19T08:27:30.257Z,18.00
2023-03-19T08:28:32.382Z,17.10
2023-03-19T08:29:34.665Z,16.80
2023-03-19T08:30:37.870Z,16.30
2023-03-19T08:31:40.560Z,12.70
2023-03-19T08:32:43.793Z,15.60
2023-03-19T08:33:47.248Z,14.40
2023-03-19T08:34:49.989Z,18.80
2023-03-19T08:35:52.225Z,26.20
2023-03-19T08:36:54.744Z,35.80
2023-03-19T08:37:56.951Z,38.70
2023-03-19T08:38:59.112Z,36.70
2023-03-19T08:40:01.519Z,37.10
2023-03-19T08:41:04.369Z,38.50
2023-03-19T08:42:06.629Z,42.30
2023-03-19T08:43:08.721Z,38.20
2023-03-19T08:44:10.804Z,34.60
2023-03-19T08:45:15.042Z,30.00
2023-03-19T08:46:18.287Z,28.40
2023-03-19T08:47:20.771Z,22.00
2023-03-19T08:48:23.509Z,25.70
2023-03-19T08:49:26.030Z,23.00
2023-03-19T08:50:28.333Z,18.50
2023-03-19T08:51:30.453Z,20.80
2023-03-19T08:52:32.625Z,17.90
2023-03-19T08:53:35.286Z,17.90
2023-03-19T08:54:37.881Z,17.60
2023-03-19T08:55:40.689Z,17.50
2023-03-19T08:56:43.639Z,15.64
2023-03-19T08:57:46.268Z,17.09
2023-03-19T08:58:48.502Z,16.70
2023-03-19T08:59:52.851Z,18.90
2023-03-19T09:01:03.827Z,17.40
2023-03-19T09:02:06.774Z,14.10
2023-03-19T09:03:09.096Z,13.80
2023-03-19T09:04:11.237Z,14.82
2023-03-19T09:05:13.956Z,15.60
2023-03-19T09:06:17.260Z,13.80
2023-03-19T09:07:19.406Z,13.90
2023-03-19T09:08:22.012Z,16.60
2023-03-19T09:09:25.379Z,12.30
2023-03-19T09:10:28.146Z,14.10
2023-03-19T09:11:30.366Z,13.80
2023-03-19T09:12:33.144Z,3.00
2023-03-19T09:13:35.531Z,14.80
2023-03-19T09:14:39.265Z,13.60
2023-03-19T09:15:42.144Z,13.00
2023-03-19T09:16:44.965Z,14.80
2023-03-19T09:17:47.101Z,13.10
2023-03-19T09:18:49.807Z,12.80
2023-03-19T09:19:53.640Z,13.00
2023-03-19T09:20:58.371Z,14.00
2023-03-19T09:22:00.647Z,12.55
2023-03-19T09:23:03.916Z,14.00
2023-03-19T09:24:09.499Z,12.50
2023-03-19T09:25:12.345Z,11.00
2023-03-19T09:26:14.955Z,15.20
2023-03-19T09:27:21.736Z,13.90
2023-03-19T09:28:26.235Z,13.80
2023-03-19T09:29:30.010Z,12.10
2023-03-19T09:30:36.624Z,15.90
2023-03-19T09:31:40.615Z,14.50
2023-03-19T09:32:44.939Z,13.00
2023-03-19T09:33:47.642Z,14.90
2023-03-19T09:34:50.789Z,17.70
2023-03-19T09:35:54.113Z,12.30
2023-03-19T09:37:16.662Z,15.50
2023-03-19T09:38:22.629Z,13.10
2023-03-19T09:39:24.888Z,15.10
2023-03-19T09:40:36.947Z,12.00
2023-03-19T09:42:12.959Z,14.80
2023-03-19T09:43:43.005Z,15.20
2023-03-19T09:44:46.464Z,13.80
2023-03-19T09:45:50.377Z,15.30
2023-03-19T09:47:02.015Z,13.90
2023-03-19T09:49:29.753Z,14.70
2023-03-19T09:50:33.891Z,15.40
2023-03-19T09:53:07.668Z,15.00
2023-03-19T09:54:34.392Z,15.40
2023-03-19T09:55:49.201Z,13.90
2023-03-19T09:56:52.478Z,15.30
2023-03-19T09:59:14.480Z,14.00
2023-03-19T10:00:23.260Z,16.40
2023-03-19T10:01:29.328Z,14.80
2023-03-19T10:02:45.207Z,16.40
2023-03-19T10:03:54.438Z,14.40
2023-03-19T10:05:09.745Z,15.00
2023-03-19T10:06:24.832Z,15.40
2023-03-19T10:07:46.894Z,14.20
2023-03-19T10:08:58.584Z,14.30
2023-03-19T10:10:28.335Z,15.70
2023-03-19T10:11:55.529Z,17.10
2023-03-19T10:13:27.776Z,16.10
2023-03-19T10:14:56.466Z,18.20
2023-03-19T10:16:01.012Z,12.10
2023-03-19T10:17:10.816Z,17.10
2023-03-19T10:18:20.976Z,15.60
2023-03-19T10:20:53.670Z,19.50
2023-03-19T10:21:59.339Z,8.00
2023-03-19T10:23:36.931Z,16.60
2023-03-19T10:24:41.420Z,19.10
2023-03-19T10:25:43.670Z,17.10
2023-03-19T10:26:47.864Z,21.00
2023-03-19T10:27:54.279Z,21.80
2023-03-19T10:29:03.549Z,20.70
2023-03-19T10:30:14.259Z,24.00
2023-03-19T10:31:38.813Z,19.60
2023-03-19T10:32:45.835Z,21.40
2023-03-19T10:34:11.038Z,18.30
2023-03-19T10:35:38.034Z,19.80
2023-03-19T10:36:40.843Z,20.10
2023-03-19T10:37:47.041Z,21.00
2023-03-19T10:38:54.469Z,18.60
2023-03-19T10:39:58.835Z,19.30
2023-03-19T10:41:07.660Z,18.00
2023-03-19T10:43:27.728Z,20.00
2023-03-19T10:44:34.540Z,21.70
2023-03-19T10:45:39.193Z,17.70
2023-03-19T10:46:44.920Z,16.70
2023-03-19T10:47:48.728Z,15.80
2023-03-19T10:48:51.261Z,16.20
2023-03-19T10:49:55.775Z,20.10
2023-03-19T10:51:05.637Z,20.10
2023-03-19T10:53:43.431Z,16.70
2023-03-19T10:54:46.513Z,16.10
2023-03-19T10:55:56.953Z,16.70
2023-03-19T10:57:18.762Z,15.50
2023-03-19T10:58:27.127Z,17.70
2023-03-19T10:59:32.362Z,17.80
2023-03-19T11:00:36.393Z,16.90
2023-03-19T11:01:40.734Z,14.80
2023-03-19T11:02:48.989Z,16.30
2023-03-19T11:03:55.029Z,14.10
2023-03-19T11:06:37.299Z,16.60
2023-03-19T11:07:39.882Z,18.10
2023-03-19T11:08:43.084Z,17.70
2023-03-19T11:09:50.123Z,14.50
2023-03-19T11:10:52.994Z,16.00
2023-03-19T11:13:26.023Z,15.50
2023-03-19T11:14:37.967Z,14.00
2023-03-19T11:15:40.188Z,14.90
2023-03-19T11:16:51.864Z,14.20
2023-03-19T11:17:59.839Z,17.00
2023-03-19T11:19:02.721Z,16.60
2023-03-19T11:21:31.931Z,14.70
2023-03-19T11:22:36.550Z,18.10
2023-03-19T11:23:41.412Z,14.00
2023-03-19T11:25:17.554Z,15.90
2023-03-19T11:26:21.527Z,13.30
2023-03-19T11:27:33.584Z,15.40
2023-03-19T11:28:37.129Z,14.90
2023-03-19T11:29:42.337Z,15.80
2023-03-19T11:31:00.925Z,14.50
2023-03-19T11:33:58.595Z,12.70
2023-03-19T11:35:15.078Z,13.40
2023-03-19T11:36:22.081Z,15.50
2023-03-19T11:39:29.238Z,15.80
2023-03-19T11:40:45.461Z,16.60
2023-03-19T11:42:00.898Z,14.40
2023-03-19T11:43:10.045Z,14.50
2023-03-19T11:44:15.845Z,14.60
2023-03-19T11:45:42.129Z,17.10
2023-03-19T11:48:41.349Z,17.90
2023-03-19T11:51:22.756Z,18.50
2023-03-19T11:52:31.426Z,16.50
2023-03-19T11:56:20.947Z,16.30
2023-03-19T11:57:52.846Z,18.90
2023-03-19T11:59:18.203Z,15.40
2023-03-19T12:00:41.303Z,15.30
2023-03-19T12:02:09.774Z,15.10
2023-03-19T12:03:39.539Z,14.50
2023-03-19T12:04:55.570Z,13.30
2023-03-19T12:06:12.433Z,14.30
2023-03-19T12:07:34.899Z,17.50
2023-03-19T12:08:40.537Z,15.00
2023-03-19T12:09:56.612Z,16.10
2023-03-19T12:11:23.720Z,16.00
2023-03-19T12:12:34.604Z,14.20
2023-03-19T12:13:56.925Z,14.40
2023-03-19T12:15:23.788Z,16.70
2023-03-19T12:16:55.442Z,16.40
2023-03-19T12:20:00.123Z,16.90
2023-03-19T12:21:18.657Z,17.00
2023-03-19T12:22:44.678Z,13.90
2023-03-19T12:24:00.137Z,14.60
2023-03-19T12:25:38.069Z,15.30
2023-03-19T12:28:23.855Z,20.30
2023-03-19T12:30:57.894Z,21.10
2023-03-19T12:33:54.665Z,18.50
2023-03-19T12:35:03.135Z,17.40
2023-03-19T12:36:09.107Z,18.70
2023-03-19T12:37:32.499Z,21.30
2023-03-19T12:38:41.584Z,20.00
2023-03-19T12:39:59.594Z,20.90
2023-03-19T12:41:07.860Z,20.40
2023-03-19T12:42:32.150Z,21.60
2023-03-19T12:44:00.091Z,20.00
2023-03-19T12:45:03.895Z,21.20
2023-03-19T12:46:18.468Z,20.60
2023-03-19T12:48:43.559Z,21.20
2023-03-19T12:49:58.727Z,18.90
2023-03-19T12:52:35.360Z,15.60
2023-03-19T12:53:45.335Z,18.90
2023-03-19T12:54:59.820Z,14.80
2023-03-19T12:56:08.596Z,16.50
2023-03-19T12:58:58.838Z,15.70
2023-03-19T13:00:13.824Z,16.10
2023-03-19T13:01:20.570Z,17.70
2023-03-19T13:02:49.579Z,20.90
2023-03-19T13:04:10.199Z,21.80
2023-03-19T13:05:18.825Z,17.90
2023-03-19T13:06:34.057Z,21.60
2023-03-19T13:07:56.594Z,17.30
2023-03-19T13:09:13.998Z,15.60
2023-03-19T13:12:00.568Z,16.60
2023-03-19T13:13:23.417Z,12.00
2023-03-19T13:14:45.159Z,13.10
2023-03-19T13:15:49.596Z,13.10
2023-03-19T13:18:38.881Z,18.10
2023-03-19T13:19:47.153Z,13.90
2023-03-19T13:21:04.424Z,14.30
2023-03-19T13:22:13.060Z,12.20
2023-03-19T13:23:21.822Z,13.50
2023-03-19T13:29:02.296Z,18.00
2023-03-19T13:30:14.602Z,17.60
2023-03-19T13:31:24.221Z,19.70
2023-03-19T13:32:39.213Z,19.60
2023-03-19T13:33:46.303Z,15.30
2023-03-19T13:34:49.409Z,16.30
2023-03-19T13:35:52.121Z,17.40
2023-03-19T13:38:28.191Z,13.30
2023-03-19T13:39:32.719Z,15.00
2023-03-19T13:40:50.065Z,15.20
2023-03-19T13:42:12.469Z,14.20
2023-03-19T13:43:33.798Z,14.40
2023-03-19T13:44:53.666Z,14.60
2023-03-19T13:46:17.751Z,15.10
2023-03-19T13:47:30.404Z,14.50
2023-03-19T13:48:49.529Z,12.70
2023-03-19T13:50:21.734Z,12.90
2023-03-19T13:51:26.072Z,14.80
2023-03-19T13:52:32.187Z,2.45
2023-03-19T13:53:40.219Z,13.40
2023-03-19T13:54:44.795Z,13.40
2023-03-19T13:55:58.587Z,12.60
2023-03-19T13:57:18.564Z,12.70
2023-03-19T13:58:26.317Z,13.10
2023-03-19T13:59:30.923Z,12.10
2023-03-19T14:00:47.367Z,14.90
2023-03-19T14:01:49.773Z,15.60
2023-03-19T14:02:53.577Z,14.50
2023-03-19T14:03:58.791Z,15.80
2023-03-19T14:05:16.739Z,16.00
2023-03-19T14:06:49.600Z,17.50
2023-03-19T14:07:54.821Z,15.30
2023-03-19T14:08:57.066Z,17.40
2023-03-19T14:10:02.947Z,15.40
2023-03-19T14:11:06.751Z,19.70
2023-03-19T14:12:21.401Z,19.50
2023-03-19T14:14:49.853Z,18.30
2023-03-19T14:15:53.587Z,19.70
2023-03-19T14:16:55.879Z,17.90
2023-03-19T14:18:01.937Z,20.60
2023-03-19T14:19:08.761Z,22.50
2023-03-19T14:20:24.069Z,21.00
2023-03-19T14:21:46.372Z,20.70
2023-03-19T14:23:12.939Z,19.50
2023-03-19T14:26:17.767Z,20.70
2023-03-19T14:27:28.200Z,17.10
2023-03-19T14:28:46.137Z,18.70
2023-03-19T14:29:50.089Z,18.30
2023-03-19T15:35:28.128Z,59.70
2023-03-19T15:36:32.843Z,60.40
2023-03-19T15:39:07.390Z,48.10
2023-03-19T15:40:12.739Z,45.60
2023-03-19T15:41:17.011Z,48.80
2023-03-19T15:42:20.133Z,38.80
2023-03-19T15:43:24.029Z,43.50
2023-03-19T15:44:30.481Z,42.00
2023-03-19T15:45:34.785Z,48.70
2023-03-19T15:46:42.631Z,48.60
2023-03-19T15:49:08.292Z,37.10
2023-03-19T15:50:19.479Z,32.30
2023-03-19T15:51:26.312Z,35.00
2023-03-19T15:52:31.195Z,37.70
2023-03-19T15:53:38.369Z,33.70
2023-03-19T15:54:56.848Z,36.00
2023-03-19T15:56:16.193Z,63.00
2023-03-19T15:57:24.636Z,67.30
2023-03-19T16:00:03.879Z,49.40
2023-03-19T16:01:11.831Z,45.50
2023-03-19T16:04:09.731Z,39.10
2023-03-19T16:05:32.795Z,44.20
2023-03-19T16:06:37.685Z,49.50
2023-03-19T16:07:42.617Z,45.70
2023-03-19T16:08:52.629Z,43.90
2023-03-19T16:09:55.994Z,50.70
2023-03-19T16:11:28.358Z,48.50
2023-03-19T16:12:41.722Z,42.10
2023-03-19T16:15:27.323Z,41.00
2023-03-19T16:16:31.155Z,44.60
2023-03-19T16:17:35.519Z,46.20